Terminal Aerodrome Forecast
Issued by NWS

Home | Current Version | Previous Version | Text Only | Print | Product List | Glossary On
Versions: 1 2 3 4 5 6 7 8 9 10 11 12 13 14 15 16
000
FTUS45 KTFX 272341
TAFHVR
TAF
KHVR 272341Z 2800/2824 22010KT 6SM FU SCT040 SCT110
      TEMPO 2800/2802 29011G21KT 5SM FU
     FM280300 23008KT P6SM SKC
      TEMPO 2812/2816 5SM FU=

USA.gov is the U.S. government's official web portal to all federal, state and local government web resources and services.